CPT weather

Cape Town International Airport
Cape Town, Western Cape, South Africa

Public forecast

Using degrees Celsius for public forecast. Weather courtesy of forecast.io.

Current aviation weather report (METAR) for Cape Town International Airport

Retrieved 2020/08/08 14:31 UTC (14 minutes ago):

FACT 081431Z 35023G33KT 6000 NSC 18/07 Q1009 NOSIG

Aviation forecast (TAF) for Cape Town International Airport

Retrieved 2020/08/08 12:00 UTC (3 hours ago):

TAF FACT 081000Z 0812/0918 34025G35KT CAVOK TX23/0812Z TN11/0906Z FM081400 34025G35KT 9999 BKN025 FM081900 34018KT 9999 SCT015 BKN025 PROB40 TEMPO 0823/0912 4000 -RA BKN008